Terminal Aerodrome Forecast
Issued by NWS Des Moines, IA

Home | Current Version | Previous Version | Text Only | Print | Product List | Glossary On
Versions: 1 2 3 4 5 6 7 8 9 10 11 12 13 14 15 16 17 18 19 20 21 22 23 24 25 26
000
FTUS43 KDMX 261224 AAA
TAFDSM
TAF AMD
KDSM 261224Z 2612/2712 34006KT 5SM BR OVC003
      TEMPO 2612/2614 1SM BR
     FM261400 34006KT 1SM BR OVC003
     FM261900 32006KT P6SM OVC007
     FM262100 30006KT P6SM OVC010
     FM270500 34004KT 4SM BR OVC007=

USA.gov is the U.S. government's official web portal to all federal, state and local government web resources and services.